createdAt,value
2019-06-08T00:00:37.429Z,57.49
2019-06-08T00:01:37.466Z,57.46
2019-06-08T00:02:36.733Z,57.39
2019-06-08T00:03:36.220Z,57.56
2019-06-08T00:04:28.650Z,57.76
2019-06-08T00:05:37.571Z,57.36
2019-06-08T00:06:36.185Z,57.49
2019-06-08T00:07:36.243Z,57.79
2019-06-08T00:08:36.116Z,57.87
2019-06-08T00:09:36.108Z,57.69
2019-06-08T00:10:36.251Z,58.30
2019-06-08T00:11:28.579Z,58.17
2019-06-08T00:12:36.074Z,58.58
2019-06-08T00:13:36.091Z,59.08
2019-06-08T00:14:36.033Z,59.00
2019-06-08T00:15:28.484Z,58.60
2019-06-08T00:16:38.232Z,59.11
2019-06-08T00:17:38.084Z,59.38
2019-06-08T00:19:38.694Z,58.60
2019-06-08T00:20:38.776Z,58.50
2019-06-08T00:21:38.924Z,58.60
2019-06-08T00:22:38.662Z,58.30
2019-06-08T00:23:38.653Z,58.40
2019-06-08T00:24:38.669Z,57.89
2019-06-08T00:25:38.678Z,58.00
2019-06-08T00:26:38.646Z,57.79
2019-06-08T00:27:38.611Z,58.09
2019-06-08T00:28:47.148Z,57.29
2019-06-08T00:29:46.183Z,57.39
2019-06-08T00:30:46.179Z,56.48
2019-06-08T00:31:38.595Z,56.78
2019-06-08T00:32:46.143Z,57.09
2019-06-08T00:33:46.157Z,57.16
2019-06-08T00:34:46.097Z,56.68
2019-06-08T00:35:46.120Z,56.98
2019-06-08T00:36:38.561Z,56.18
2019-06-08T00:37:38.521Z,56.58
2019-06-08T00:38:38.491Z,56.07
2019-06-08T00:39:38.475Z,55.98
2019-06-08T00:40:38.531Z,56.96
2019-06-08T00:41:38.472Z,56.07
2019-06-08T00:42:38.464Z,55.57
2019-06-08T00:43:38.436Z,55.16
2019-06-08T00:44:38.422Z,55.16
2019-06-08T00:45:38.410Z,55.98
2019-06-08T00:46:38.402Z,55.57
2019-06-08T00:47:47.618Z,55.27
2019-06-08T00:48:39.418Z,55.07
2019-06-08T00:49:38.372Z,55.07
2019-06-08T00:50:38.359Z,54.56
2019-06-08T00:51:38.353Z,54.76
2019-06-08T00:52:38.337Z,54.86
2019-06-08T00:53:38.350Z,54.56
2019-06-08T00:54:38.327Z,54.05
2019-06-08T00:55:38.324Z,54.25
2019-06-08T00:56:38.300Z,53.65
2019-06-08T00:57:38.294Z,54.36
2019-06-08T00:58:38.301Z,54.05
2019-06-08T00:59:38.269Z,53.85
2019-06-08T01:00:38.265Z,53.65
2019-06-08T01:01:38.270Z,53.45
2019-06-08T01:02:38.229Z,53.67
2019-06-08T01:03:38.249Z,52.67
2019-06-08T01:04:38.227Z,53.38
2019-06-08T01:05:38.204Z,53.17
2019-06-08T01:06:38.199Z,52.76
2019-06-08T01:07:38.175Z,52.67
2019-06-08T01:08:38.185Z,52.67
2019-06-08T01:09:38.155Z,52.67
2019-06-08T01:10:38.144Z,53.27
2019-06-08T01:11:38.135Z,53.17
2019-06-08T01:12:38.247Z,53.38
2019-06-08T01:13:38.154Z,52.46
2019-06-08T01:14:38.104Z,52.26
2019-06-08T01:15:38.091Z,52.67
2019-06-08T01:16:38.078Z,52.36
2019-06-08T01:17:38.070Z,53.07
2019-06-08T01:18:38.075Z,52.26
2019-06-08T01:19:38.066Z,52.19
2019-06-08T01:20:38.037Z,53.19
2019-06-08T01:21:38.029Z,53.30
2019-06-08T01:22:38.055Z,52.89
2019-06-08T01:23:38.006Z,52.99
2019-06-08T01:24:38.014Z,53.19
2019-06-08T01:25:37.986Z,53.40
2019-06-08T01:26:38.001Z,53.19
2019-06-08T01:27:37.976Z,53.09
2019-06-08T01:28:37.993Z,52.59
2019-06-08T01:29:37.993Z,53.19
2019-06-08T01:30:37.966Z,52.79
2019-06-08T01:31:37.919Z,52.89
2019-06-08T01:32:45.493Z,53.19
2019-06-08T01:33:45.461Z,52.69
2019-06-08T01:34:37.915Z,52.89
2019-06-08T01:35:45.437Z,53.60
2019-06-08T01:36:37.908Z,53.40
2019-06-08T01:37:45.408Z,53.09
2019-06-08T01:38:37.859Z,53.70
2019-06-08T01:39:37.883Z,53.19
2019-06-08T01:40:37.834Z,53.09
2019-06-08T01:41:37.824Z,53.40
2019-06-08T01:42:37.800Z,53.60
2019-06-08T01:43:37.787Z,53.09
2019-06-08T01:44:37.817Z,53.30
2019-06-08T01:45:37.787Z,53.50
2019-06-08T01:46:37.766Z,53.60
2019-06-08T01:47:37.753Z,53.70
2019-06-08T01:48:37.734Z,53.70
2019-06-08T01:49:37.725Z,54.00
2019-06-08T01:50:37.736Z,54.41
2019-06-08T01:51:37.703Z,53.80
2019-06-08T01:52:37.704Z,53.90
2019-06-08T01:53:37.682Z,53.60
2019-06-08T01:54:37.672Z,53.60
2019-06-08T01:55:37.682Z,54.11
2019-06-08T01:56:37.650Z,53.50
2019-06-08T01:57:37.669Z,53.70
2019-06-08T01:58:37.635Z,53.63
2019-06-08T01:59:37.625Z,53.90
2019-06-08T02:00:41.218Z,53.90
2019-06-08T02:01:37.620Z,54.11
2019-06-08T02:02:45.136Z,53.72
2019-06-08T02:03:37.613Z,53.60
2019-06-08T02:04:37.571Z,53.63
2019-06-08T02:05:37.605Z,53.70
2019-06-08T02:06:37.616Z,53.80
2019-06-08T02:07:37.532Z,53.70
2019-06-08T02:08:37.564Z,53.70
2019-06-08T02:09:37.545Z,53.83
2019-06-08T02:10:37.545Z,54.21
2019-06-08T02:11:37.520Z,53.93
2019-06-08T02:12:37.491Z,53.80
2019-06-08T02:13:37.495Z,54.11
2019-06-08T02:14:37.470Z,54.44
2019-06-08T02:15:37.455Z,54.00
2019-06-08T02:16:37.460Z,53.80
2019-06-08T02:17:37.428Z,53.80
2019-06-08T02:18:48.967Z,54.00
2019-06-08T02:19:38.802Z,53.90
2019-06-08T02:20:37.431Z,54.00
2019-06-08T02:21:37.413Z,54.23
2019-06-08T02:22:37.376Z,53.93
2019-06-08T02:23:37.371Z,54.13
2019-06-08T02:24:37.352Z,54.13
2019-06-08T02:25:37.350Z,54.44
2019-06-08T02:26:37.360Z,54.23
2019-06-08T02:27:37.330Z,54.13
2019-06-08T02:28:37.335Z,54.23
2019-06-08T02:29:37.311Z,54.23
2019-06-08T02:30:41.146Z,54.13
2019-06-08T02:31:37.821Z,54.26
2019-06-08T02:32:37.531Z,54.33
2019-06-08T02:33:37.440Z,54.94
2019-06-08T02:34:38.150Z,55.15
2019-06-08T02:35:37.841Z,54.03
2019-06-08T02:36:37.876Z,54.53
2019-06-08T02:37:38.307Z,54.23
2019-06-08T02:38:37.217Z,53.93
2019-06-08T02:39:38.422Z,54.13
2019-06-08T02:40:37.187Z,53.93
2019-06-08T02:41:37.628Z,54.16
2019-06-08T02:42:37.299Z,54.16
2019-06-08T02:43:38.271Z,54.16
2019-06-08T02:44:37.144Z,54.16
2019-06-08T02:45:39.917Z,54.36
2019-06-08T02:46:38.221Z,54.26
2019-06-08T02:47:37.168Z,54.36
2019-06-08T02:48:56.315Z,54.05
2019-06-08T02:49:39.660Z,54.05
2019-06-08T02:50:37.468Z,54.56
2019-06-08T02:51:38.060Z,54.05
2019-06-08T02:52:38.322Z,54.56
2019-06-08T02:53:38.269Z,54.36
2019-06-08T02:54:37.846Z,54.46
2019-06-08T02:55:37.270Z,54.56
2019-06-08T02:56:39.293Z,54.26
2019-06-08T02:57:37.580Z,54.26
2019-06-08T02:58:39.089Z,54.05
2019-06-08T02:59:37.978Z,54.16
2019-06-08T03:00:37.446Z,54.16
2019-06-08T03:01:38.858Z,54.16
2019-06-08T03:02:38.542Z,54.28
2019-06-08T03:03:38.534Z,54.16
2019-06-08T03:04:38.549Z,54.28
2019-06-08T03:05:38.099Z,54.69
2019-06-08T03:06:38.904Z,54.76
2019-06-08T03:07:38.694Z,54.05
2019-06-08T03:08:38.591Z,53.67
2019-06-08T03:09:38.523Z,54.16
2019-06-08T03:10:37.227Z,53.85
2019-06-08T03:11:37.170Z,53.78
2019-06-08T03:12:37.524Z,53.75
2019-06-08T03:13:39.460Z,53.78
2019-06-08T03:14:37.675Z,53.65
2019-06-08T03:15:38.621Z,53.34
2019-06-08T03:16:40.409Z,53.58
2019-06-08T03:17:37.744Z,52.76
2019-06-08T03:18:38.289Z,52.66
2019-06-08T03:19:37.548Z,53.37
2019-06-08T03:20:37.873Z,53.05
2019-06-08T03:21:38.281Z,52.84
2019-06-08T03:22:38.813Z,52.97
2019-06-08T03:23:38.359Z,52.86
2019-06-08T03:24:38.566Z,52.97
2019-06-08T03:25:47.421Z,53.17
2019-06-08T03:26:39.693Z,53.47
2019-06-08T03:27:37.316Z,52.66
2019-06-08T03:28:37.364Z,53.07
2019-06-08T03:29:37.285Z,53.47
2019-06-08T03:30:42.226Z,52.86
2019-06-08T03:31:43.919Z,52.86
2019-06-08T03:32:45.983Z,53.37
2019-06-08T03:33:45.326Z,52.76
2019-06-08T03:34:45.764Z,52.86
2019-06-08T03:35:46.622Z,53.07
2019-06-08T03:36:43.914Z,53.27
2019-06-08T03:37:37.961Z,53.78
2019-06-08T03:38:37.643Z,53.17
2019-06-08T03:39:37.043Z,53.37
2019-06-08T03:40:38.201Z,53.37
2019-06-08T03:41:38.296Z,53.37
2019-06-08T03:42:36.555Z,53.07
2019-06-08T03:43:37.704Z,52.15
2019-06-08T03:44:38.323Z,52.76
2019-06-08T03:45:36.504Z,53.37
2019-06-08T03:46:36.517Z,52.76
2019-06-08T03:47:37.110Z,53.17
2019-06-08T03:48:37.160Z,53.37
2019-06-08T03:49:47.497Z,52.86
2019-06-08T03:50:37.955Z,53.27
2019-06-08T03:51:40.266Z,52.76
2019-06-08T03:52:38.212Z,52.66
2019-06-08T03:53:38.046Z,52.76
2019-06-08T03:54:38.895Z,53.37
2019-06-08T03:55:37.992Z,52.97
2019-06-08T03:56:38.016Z,53.50
2019-06-08T03:57:38.079Z,53.47
2019-06-08T03:58:37.095Z,53.37
2019-06-08T03:59:38.339Z,53.50
2019-06-08T04:00:36.448Z,52.89
2019-06-08T04:01:37.456Z,53.30
2019-06-08T04:02:37.920Z,53.07
2019-06-08T04:03:37.570Z,53.91
2019-06-08T04:04:37.930Z,53.40
2019-06-08T04:05:37.947Z,53.60
2019-06-08T04:06:37.733Z,53.40
2019-06-08T04:07:37.594Z,53.80
2019-06-08T04:08:37.878Z,53.80
2019-06-08T04:09:37.758Z,54.00
2019-06-08T04:10:37.609Z,53.91
2019-06-08T04:11:37.786Z,53.88
2019-06-08T04:12:37.639Z,54.08
2019-06-08T04:13:37.660Z,54.08
2019-06-08T04:14:37.788Z,54.49
2019-06-08T04:15:37.806Z,54.21
2019-06-08T04:16:38.077Z,54.21
2019-06-08T04:17:37.818Z,54.21
2019-06-08T04:18:46.691Z,54.28
2019-06-08T04:19:37.983Z,54.69
2019-06-08T04:20:37.848Z,54.59
2019-06-08T04:21:37.772Z,54.59
2019-06-08T04:22:36.092Z,54.11
2019-06-08T04:23:36.128Z,54.61
2019-06-08T04:24:36.068Z,54.71
2019-06-08T04:25:36.061Z,55.12
2019-06-08T04:26:36.048Z,54.71
2019-06-08T04:27:36.039Z,54.61
2019-06-08T04:28:36.068Z,54.92
2019-06-08T04:29:37.545Z,54.82
2019-06-08T04:30:36.007Z,54.51
2019-06-08T04:31:37.723Z,55.02
2019-06-08T04:32:35.984Z,54.61
2019-06-08T04:33:37.346Z,55.02
2019-06-08T04:34:35.985Z,54.51
2019-06-08T04:35:35.948Z,54.61
2019-06-08T04:36:35.948Z,54.61
2019-06-08T04:37:35.936Z,54.61
2019-06-08T04:38:35.920Z,54.51
2019-06-08T04:39:35.929Z,54.71
2019-06-08T04:40:35.952Z,54.31
2019-06-08T04:41:35.898Z,54.41
2019-06-08T04:42:35.934Z,54.71
2019-06-08T04:43:35.892Z,54.61
2019-06-08T04:44:35.886Z,54.61
2019-06-08T04:45:35.865Z,54.92
2019-06-08T04:46:35.892Z,55.02
2019-06-08T04:47:35.816Z,54.61
2019-06-08T04:48:35.811Z,54.71
2019-06-08T04:49:35.817Z,54.31
2019-06-08T04:50:35.900Z,54.41
2019-06-08T04:51:35.804Z,54.41
2019-06-08T04:52:35.780Z,54.82
2019-06-08T04:53:45.573Z,54.21
2019-06-08T04:54:45.244Z,54.31
2019-06-08T04:55:35.743Z,54.21
2019-06-08T04:56:35.734Z,54.51
2019-06-08T04:57:35.731Z,54.31
2019-06-08T04:58:35.701Z,54.31
2019-06-08T04:59:35.713Z,54.11
2019-06-08T05:00:35.682Z,54.28
2019-06-08T05:01:35.669Z,54.18
2019-06-08T05:02:35.669Z,53.50
2019-06-08T05:03:35.689Z,52.79
2019-06-08T05:04:35.669Z,53.19
2019-06-08T05:05:35.634Z,53.37
2019-06-08T05:06:35.700Z,52.69
2019-06-08T05:07:35.616Z,52.46
2019-06-08T05:08:35.607Z,53.07
2019-06-08T05:09:35.586Z,52.26
2019-06-08T05:10:35.621Z,52.15
2019-06-08T05:11:36.504Z,52.48
2019-06-08T05:12:35.622Z,52.48
2019-06-08T05:13:35.747Z,52.36
2019-06-08T05:14:35.545Z,52.06
2019-06-08T05:15:35.594Z,51.65
2019-06-08T05:16:35.545Z,51.65
2019-06-08T05:17:35.524Z,51.45
2019-06-08T05:18:35.557Z,51.45
2019-06-08T05:19:45.411Z,51.35
2019-06-08T05:20:39.385Z,51.45
2019-06-08T05:21:36.681Z,52.06
2019-06-08T05:22:43.650Z,51.35
2019-06-08T05:23:35.457Z,51.75
2019-06-08T05:24:35.424Z,51.86
2019-06-08T05:25:35.434Z,52.46
2019-06-08T05:26:35.417Z,52.46
2019-06-08T05:27:35.473Z,51.86
2019-06-08T05:28:35.378Z,51.25
2019-06-08T05:29:35.372Z,51.65
2019-06-08T05:30:35.750Z,51.27
2019-06-08T05:31:35.353Z,51.78
2019-06-08T05:32:35.355Z,52.18
2019-06-08T05:33:35.631Z,51.98
2019-06-08T05:34:35.410Z,51.65
2019-06-08T05:35:35.373Z,51.67
2019-06-08T05:36:35.343Z,51.75
2019-06-08T05:37:35.327Z,52.15
2019-06-08T05:38:35.348Z,52.06
2019-06-08T05:39:35.381Z,52.26
2019-06-08T05:40:35.276Z,52.15
2019-06-08T05:41:35.294Z,52.46
2019-06-08T05:42:35.320Z,51.86
2019-06-08T05:43:35.232Z,51.88
2019-06-08T05:44:35.340Z,52.08
2019-06-08T05:45:35.199Z,51.98
2019-06-08T05:46:35.490Z,52.79
2019-06-08T05:47:35.273Z,52.28
2019-06-08T05:48:35.188Z,51.67
2019-06-08T05:49:35.200Z,52.18
2019-06-08T05:50:35.226Z,51.65
2019-06-08T05:51:35.169Z,51.88
2019-06-08T05:52:35.124Z,51.98
2019-06-08T05:53:35.118Z,51.57
2019-06-08T05:54:35.105Z,51.65
2019-06-08T05:55:35.098Z,52.97
2019-06-08T05:56:35.103Z,52.36
2019-06-08T05:57:35.122Z,51.86
2019-06-08T05:58:35.069Z,52.08
2019-06-08T05:59:35.057Z,52.48
2019-06-08T06:00:35.043Z,52.28
2019-06-08T06:01:35.056Z,52.18
2019-06-08T06:02:35.022Z,52.18
2019-06-08T06:03:35.013Z,52.18
2019-06-08T06:04:35.087Z,52.18
2019-06-08T06:05:34.987Z,52.89
2019-06-08T06:06:35.038Z,53.40
2019-06-08T06:07:34.960Z,52.46
2019-06-08T06:08:34.951Z,51.86
2019-06-08T06:09:34.999Z,52.26
2019-06-08T06:10:34.930Z,52.59
2019-06-08T06:11:34.941Z,52.18
2019-06-08T06:12:34.930Z,52.15
2019-06-08T06:13:42.749Z,52.26
2019-06-08T06:14:36.971Z,52.36
2019-06-08T06:15:34.874Z,51.75
2019-06-08T06:16:34.888Z,52.46
2019-06-08T06:17:34.862Z,52.06
2019-06-08T06:18:34.843Z,52.15
2019-06-08T06:19:34.843Z,52.06
2019-06-08T06:20:34.830Z,53.40
2019-06-08T06:21:34.834Z,52.66
2019-06-08T06:22:34.818Z,52.08
2019-06-08T06:23:34.791Z,52.26
2019-06-08T06:24:34.803Z,52.66
2019-06-08T06:25:34.774Z,52.56
2019-06-08T06:26:34.778Z,52.46
2019-06-08T06:27:34.746Z,52.06
2019-06-08T06:28:34.753Z,52.76
2019-06-08T06:29:34.859Z,51.86
2019-06-08T06:30:34.730Z,52.46
2019-06-08T06:31:34.759Z,52.06
2019-06-08T06:32:34.699Z,52.56
2019-06-08T06:33:34.687Z,52.36
2019-06-08T06:34:34.671Z,52.76
2019-06-08T06:35:34.661Z,52.86
2019-06-08T06:36:34.681Z,52.46
2019-06-08T06:37:34.641Z,52.56
2019-06-08T06:38:34.630Z,52.23
2019-06-08T06:39:34.620Z,52.23
2019-06-08T06:40:34.610Z,52.84
2019-06-08T06:41:34.623Z,52.06
2019-06-08T06:42:34.589Z,52.36
2019-06-08T06:43:34.603Z,52.26
2019-06-08T06:44:34.579Z,51.95
2019-06-08T06:45:34.563Z,52.44
2019-06-08T06:46:34.568Z,51.62
2019-06-08T06:47:34.589Z,52.44
2019-06-08T06:48:34.526Z,51.62
2019-06-08T06:49:34.514Z,51.93
2019-06-08T06:50:34.629Z,52.13
2019-06-08T06:51:34.586Z,51.83
2019-06-08T06:52:44.282Z,52.23
2019-06-08T06:53:34.488Z,52.41
2019-06-08T06:54:34.500Z,52.03
2019-06-08T06:55:34.553Z,52.41
2019-06-08T06:56:45.186Z,51.12
2019-06-08T06:57:36.523Z,52.13
2019-06-08T06:58:34.431Z,51.42
2019-06-08T06:59:34.413Z,52.23
2019-06-08T07:00:34.400Z,52.03
2019-06-08T07:01:34.439Z,52.03
2019-06-08T07:02:34.376Z,51.73
2019-06-08T07:03:34.365Z,51.70
2019-06-08T07:04:34.381Z,52.11
2019-06-08T07:05:34.393Z,51.81
2019-06-08T07:06:34.466Z,49.96
2019-06-08T07:07:34.319Z,50.49
2019-06-08T07:08:34.315Z,50.82
2019-06-08T07:09:34.301Z,51.20
2019-06-08T07:10:34.343Z,50.69
2019-06-08T07:11:34.309Z,50.01
2019-06-08T07:12:34.265Z,50.31
2019-06-08T07:13:34.258Z,50.31
2019-06-08T07:14:34.251Z,50.51
2019-06-08T07:15:41.430Z,51.53
2019-06-08T07:16:35.258Z,50.59
2019-06-08T07:17:34.208Z,49.88
2019-06-08T07:18:34.197Z,50.79
2019-06-08T07:19:34.229Z,50.09
2019-06-08T07:20:34.178Z,50.38
2019-06-08T07:21:41.888Z,50.38
2019-06-08T07:22:35.281Z,49.68
2019-06-08T07:23:43.227Z,49.90
2019-06-08T07:24:34.204Z,50.41
2019-06-08T07:25:34.152Z,50.49
2019-06-08T07:26:34.206Z,50.41
2019-06-08T07:27:34.111Z,49.98
2019-06-08T07:28:34.164Z,50.51
2019-06-08T07:29:34.155Z,50.29
2019-06-08T07:30:34.150Z,50.49
2019-06-08T07:31:34.083Z,50.06
2019-06-08T07:32:34.060Z,50.09
2019-06-08T07:33:41.628Z,50.29
2019-06-08T07:34:34.039Z,51.68
2019-06-08T07:35:34.017Z,50.06
2019-06-08T07:36:34.076Z,48.95
2019-06-08T07:37:34.022Z,49.66
2019-06-08T07:38:34.031Z,50.26
2019-06-08T07:39:34.057Z,50.67
2019-06-08T07:40:34.060Z,49.13
2019-06-08T07:41:34.008Z,48.42
2019-06-08T07:42:33.956Z,48.50
2019-06-08T07:43:33.969Z,47.99
2019-06-08T07:44:34.090Z,47.31
2019-06-08T07:45:33.928Z,48.52
2019-06-08T07:46:34.153Z,48.60
2019-06-08T07:47:34.177Z,48.50
2019-06-08T07:48:33.969Z,48.80
2019-06-08T07:49:33.906Z,48.19
2019-06-08T07:50:34.008Z,48.98
2019-06-08T07:51:33.856Z,47.97
2019-06-08T07:52:33.983Z,47.79
2019-06-08T07:53:33.924Z,47.99
2019-06-08T07:54:33.875Z,48.70
2019-06-08T07:55:33.955Z,48.60
2019-06-08T07:56:33.934Z,48.58
2019-06-08T07:57:33.922Z,48.70
2019-06-08T07:58:33.767Z,48.19
2019-06-08T07:59:33.754Z,48.50
2019-06-08T08:00:33.741Z,48.60
2019-06-08T08:01:36.562Z,49.10
2019-06-08T08:02:33.750Z,48.72
2019-06-08T08:03:33.701Z,48.60
2019-06-08T08:04:33.689Z,49.01
2019-06-08T08:05:33.689Z,49.61
2019-06-08T08:06:33.676Z,48.39
2019-06-08T08:07:33.686Z,48.50
2019-06-08T08:08:33.662Z,48.78
2019-06-08T08:09:33.735Z,48.10
2019-06-08T08:10:33.626Z,48.58
2019-06-08T08:11:33.615Z,48.68
2019-06-08T08:12:33.628Z,49.08
2019-06-08T08:13:33.594Z,48.07
2019-06-08T08:14:33.590Z,48.17
2019-06-08T08:15:33.580Z,48.58
2019-06-08T08:16:33.565Z,49.58
2019-06-08T08:17:34.414Z,48.98
2019-06-08T08:18:33.557Z,48.88
2019-06-08T08:19:33.543Z,48.98
2019-06-08T08:20:33.518Z,48.13
2019-06-08T08:21:33.505Z,46.47
2019-06-08T08:22:33.586Z,44.53
2019-06-08T08:23:33.514Z,43.34
2019-06-08T08:24:42.086Z,44.89
2019-06-08T08:25:41.030Z,45.98
2019-06-08T08:26:51.453Z,46.39
2019-06-08T08:27:33.468Z,46.31
2019-06-08T08:28:33.434Z,47.02
2019-06-08T08:29:33.455Z,47.04
2019-06-08T08:30:33.410Z,47.32
2019-06-08T08:31:33.418Z,46.92
2019-06-08T08:32:33.425Z,47.02
2019-06-08T08:33:34.080Z,47.12
2019-06-08T08:34:33.365Z,46.94
2019-06-08T08:35:33.368Z,46.92
2019-06-08T08:36:33.568Z,46.94
2019-06-08T08:37:33.355Z,47.16
2019-06-08T08:38:33.320Z,47.26
2019-06-08T08:39:33.336Z,46.78
2019-06-08T08:40:33.310Z,47.79
2019-06-08T08:41:33.298Z,47.26
2019-06-08T08:42:33.357Z,48.47
2019-06-08T08:43:33.277Z,48.10
2019-06-08T08:44:33.274Z,47.77
2019-06-08T08:45:33.247Z,47.26
2019-06-08T08:46:33.279Z,47.36
2019-06-08T08:47:33.242Z,47.56
2019-06-08T08:48:33.210Z,47.77
2019-06-08T08:49:33.207Z,48.58
2019-06-08T08:50:33.192Z,48.78
2019-06-08T08:51:34.105Z,48.10
2019-06-08T08:52:37.179Z,48.70
2019-06-08T08:54:44.545Z,48.78
2019-06-08T08:55:44.395Z,48.68
2019-06-08T08:56:44.388Z,48.70
2019-06-08T08:57:44.379Z,48.60
2019-06-08T08:58:44.357Z,49.01
2019-06-08T08:59:44.334Z,48.70
2019-06-08T09:00:44.343Z,49.10
2019-06-08T09:01:44.311Z,49.30
2019-06-08T09:02:44.327Z,49.71
2019-06-08T09:03:44.309Z,50.21
2019-06-08T09:04:44.291Z,49.84
2019-06-08T09:05:44.270Z,49.30
2019-06-08T09:06:44.276Z,49.63
2019-06-08T09:07:44.297Z,49.91
2019-06-08T09:08:44.245Z,50.34
2019-06-08T09:09:44.234Z,50.21
2019-06-08T09:10:44.225Z,50.42
2019-06-08T09:11:44.222Z,48.58
2019-06-08T09:12:44.262Z,48.85
2019-06-08T09:13:44.299Z,48.85
2019-06-08T09:14:44.188Z,48.96
2019-06-08T09:15:44.254Z,47.38
2019-06-08T09:16:44.155Z,44.83
2019-06-08T09:17:44.153Z,40.97
2019-06-08T09:18:44.268Z,39.89
2019-06-08T09:19:44.131Z,38.44
2019-06-08T09:20:44.128Z,37.68
2019-06-08T09:21:44.148Z,37.51
2019-06-08T09:22:56.214Z,38.44
2019-06-08T09:23:45.103Z,38.49
2019-06-08T09:24:44.066Z,41.09
2019-06-08T09:25:57.123Z,42.05
2019-06-08T09:29:10.602Z,40.91
2019-06-08T09:31:18.689Z,43.42
2019-06-08T09:32:28.193Z,43.52
2019-06-08T09:33:24.897Z,43.44
2019-06-08T09:34:19.468Z,43.02
2019-06-08T09:35:24.868Z,44.15
2019-06-08T09:36:17.850Z,44.65
2019-06-08T09:37:25.861Z,44.57
2019-06-08T09:38:18.629Z,44.39
2019-06-08T09:39:18.575Z,44.59
2019-06-08T09:40:17.325Z,44.69
2019-06-08T09:41:18.629Z,44.47
2019-06-08T09:42:20.963Z,43.34
2019-06-08T09:43:18.953Z,44.24
2019-06-08T09:44:18.498Z,44.89
2019-06-08T09:45:18.214Z,45.24
2019-06-08T09:46:17.907Z,46.04
2019-06-08T09:47:18.099Z,46.12
2019-06-08T09:48:18.198Z,46.42
2019-06-08T09:49:18.797Z,45.84
2019-06-08T09:50:18.541Z,44.93
2019-06-08T09:51:18.669Z,45.14
2019-06-08T09:52:18.377Z,45.21
2019-06-08T09:53:26.680Z,45.52
2019-06-08T09:54:18.581Z,45.21
2019-06-08T09:55:18.114Z,45.97
2019-06-08T09:56:18.525Z,46.26
2019-06-08T09:57:18.844Z,46.77
2019-06-08T09:58:18.074Z,46.87
2019-06-08T09:59:18.834Z,47.17
2019-06-08T10:00:21.241Z,46.97
2019-06-08T10:01:18.538Z,46.97
2019-06-08T10:02:18.416Z,47.19
2019-06-08T10:03:18.661Z,47.17
2019-06-08T10:04:17.104Z,47.07
2019-06-08T10:05:18.524Z,46.85
2019-06-08T10:06:18.204Z,46.97
2019-06-08T10:07:18.623Z,46.45
2019-06-08T10:08:20.177Z,47.17
2019-06-08T10:09:18.651Z,47.17
2019-06-08T10:10:18.160Z,46.97
2019-06-08T10:11:28.068Z,46.97
2019-06-08T10:12:18.183Z,47.17
2019-06-08T10:13:24.492Z,47.15
2019-06-08T10:14:24.468Z,47.13
2019-06-08T10:15:28.440Z,47.00
2019-06-08T10:16:18.533Z,46.20
2019-06-08T10:17:27.870Z,47.19
2019-06-08T10:19:37.032Z,45.75
2019-06-08T10:21:58.845Z,44.91
2019-06-08T10:23:00.983Z,44.71
2019-06-08T10:24:01.046Z,44.51
2019-06-08T10:25:10.471Z,44.83
2019-06-08T10:26:00.755Z,44.43
2019-06-08T10:26:59.375Z,44.35
2019-06-08T10:28:04.160Z,45.45
2019-06-08T10:29:02.183Z,46.18
2019-06-08T10:30:01.275Z,45.79
2019-06-08T10:31:08.292Z,46.60
2019-06-08T10:31:59.316Z,46.40
2019-06-08T10:33:09.976Z,47.11
2019-06-08T10:34:01.496Z,46.80
2019-06-08T10:35:02.206Z,46.50
2019-06-08T10:36:00.676Z,46.80
2019-06-08T10:37:12.529Z,46.80
2019-06-08T10:38:02.817Z,46.30
2019-06-08T10:40:09.450Z,46.60
2019-06-08T10:41:16.117Z,45.70
2019-06-08T10:43:20.062Z,46.50
2019-06-08T10:44:19.613Z,46.91
2019-06-08T10:45:19.627Z,46.91
2019-06-08T10:46:20.950Z,46.50
2019-06-08T10:47:19.572Z,46.60
2019-06-08T10:48:19.568Z,46.50
2019-06-08T10:49:19.858Z,46.38
2019-06-08T10:50:19.674Z,46.30
2019-06-08T10:51:19.590Z,46.60
2019-06-08T10:52:20.326Z,46.91
2019-06-08T10:53:19.503Z,46.10
2019-06-08T10:54:19.546Z,46.28
2019-06-08T10:55:19.544Z,46.30
2019-06-08T10:56:19.493Z,47.08
2019-06-08T10:57:19.495Z,46.26
2019-06-08T10:58:19.635Z,46.26
2019-06-08T10:59:19.438Z,45.25
2019-06-08T11:00:23.525Z,46.44
2019-06-08T11:01:19.461Z,45.53
2019-06-08T11:02:19.409Z,45.13
2019-06-08T11:03:19.413Z,44.93
2019-06-08T11:04:19.390Z,44.83
2019-06-08T11:05:19.504Z,46.44
2019-06-08T11:06:19.407Z,45.33
2019-06-08T11:07:19.360Z,44.91
2019-06-08T11:08:19.338Z,46.89
2019-06-08T11:09:19.598Z,45.10
2019-06-08T11:10:19.339Z,45.63
2019-06-08T11:11:20.560Z,45.73
2019-06-08T11:12:19.371Z,45.23
2019-06-08T11:13:19.311Z,45.35
2019-06-08T11:14:22.429Z,44.95
2019-06-08T11:15:19.264Z,46.06
2019-06-08T11:16:19.271Z,46.26
2019-06-08T11:17:19.282Z,44.95
2019-06-08T11:18:19.229Z,44.63
2019-06-08T11:19:19.257Z,44.83
2019-06-08T11:20:19.230Z,44.93
2019-06-08T11:21:19.285Z,45.75
2019-06-08T11:22:19.192Z,45.53
2019-06-08T11:23:19.302Z,45.43
2019-06-08T11:24:24.674Z,44.95
2019-06-08T11:25:20.261Z,46.46
2019-06-08T11:26:24.067Z,46.38
2019-06-08T11:27:20.132Z,46.76
2019-06-08T11:28:19.136Z,46.26
2019-06-08T11:29:19.170Z,47.04
2019-06-08T11:30:23.622Z,45.79
2019-06-08T11:31:20.121Z,44.48
2019-06-08T11:32:19.082Z,44.68
2019-06-08T11:33:19.066Z,44.26
2019-06-08T11:34:21.938Z,43.16
2019-06-08T11:35:19.067Z,43.90
2019-06-08T11:36:19.259Z,44.12
2019-06-08T11:37:21.047Z,44.55
2019-06-08T11:38:20.288Z,44.55
2019-06-08T11:39:19.004Z,46.23
2019-06-08T11:40:20.723Z,44.73
2019-06-08T11:41:22.629Z,44.63
2019-06-08T11:42:19.258Z,44.53
2019-06-08T11:43:19.018Z,45.65
2019-06-08T11:44:19.000Z,45.03
2019-06-08T11:45:18.964Z,46.03
2019-06-08T11:46:21.572Z,45.94
2019-06-08T11:47:18.959Z,44.83
2019-06-08T11:48:18.903Z,44.73
2019-06-08T11:49:19.050Z,45.13
2019-06-08T11:50:18.944Z,45.03
2019-06-08T11:51:18.875Z,46.14
2019-06-08T11:52:18.881Z,44.93
2019-06-08T11:53:18.950Z,44.32
2019-06-08T11:54:32.857Z,44.53
2019-06-08T11:55:19.885Z,44.63
2019-06-08T11:56:18.820Z,44.63
2019-06-08T11:57:18.834Z,44.53
2019-06-08T11:58:22.703Z,45.13
2019-06-08T11:59:18.786Z,43.72
2019-06-08T12:00:27.412Z,44.43
2019-06-08T12:01:19.813Z,43.72
2019-06-08T12:02:18.775Z,44.23
2019-06-08T12:03:18.794Z,44.23
2019-06-08T12:04:18.753Z,43.92
2019-06-08T12:05:18.724Z,44.10
2019-06-08T12:06:18.770Z,44.12
2019-06-08T12:07:18.720Z,44.20
2019-06-08T12:08:20.881Z,44.00
2019-06-08T12:09:19.084Z,43.50
2019-06-08T12:10:18.703Z,43.02
2019-06-08T12:11:22.237Z,43.02
2019-06-08T12:12:21.241Z,44.24
2019-06-08T12:13:18.660Z,44.07
2019-06-08T12:14:18.646Z,44.35
2019-06-08T12:15:21.168Z,44.65
2019-06-08T12:16:22.064Z,45.33
2019-06-08T12:17:22.248Z,45.03
2019-06-08T12:18:18.604Z,44.93
2019-06-08T12:19:20.805Z,45.03
2019-06-08T12:20:21.274Z,44.93
2019-06-08T12:21:19.545Z,45.23
2019-06-08T12:22:21.694Z,45.61
2019-06-08T12:23:18.580Z,45.10
2019-06-08T12:24:18.520Z,44.31
2019-06-08T12:25:18.516Z,43.30
2019-06-08T12:26:18.555Z,44.51
2019-06-08T12:27:26.865Z,44.71
2019-06-08T12:28:19.489Z,44.20
2019-06-08T12:29:19.022Z,44.40
2019-06-08T12:30:25.647Z,43.90
2019-06-08T12:31:22.542Z,44.28
2019-06-08T12:32:18.547Z,43.30
2019-06-08T12:33:19.830Z,43.38
2019-06-08T12:34:18.715Z,43.18
2019-06-08T12:35:18.396Z,43.58
2019-06-08T12:36:20.707Z,43.86
2019-06-08T12:37:22.231Z,44.24
2019-06-08T12:38:19.131Z,42.94
2019-06-08T12:39:20.968Z,43.12
2019-06-08T12:40:19.537Z,43.72
2019-06-08T12:41:19.361Z,43.22
2019-06-08T12:42:23.267Z,43.19
2019-06-08T12:43:20.382Z,43.27
2019-06-08T12:44:20.375Z,42.38
2019-06-08T12:45:19.998Z,42.88
2019-06-08T12:46:20.928Z,41.88
2019-06-08T12:47:24.701Z,41.97
2019-06-08T12:48:24.828Z,42.57
2019-06-08T12:49:20.511Z,42.18
2019-06-08T12:50:18.236Z,41.88
2019-06-08T12:51:19.888Z,41.47
2019-06-08T12:52:22.199Z,42.21
2019-06-08T12:53:21.264Z,42.61
2019-06-08T12:54:19.455Z,42.41
2019-06-08T12:55:24.272Z,42.82
2019-06-08T12:56:23.817Z,42.11
2019-06-08T12:57:21.755Z,42.99
2019-06-08T12:58:21.793Z,41.89
2019-06-08T12:59:22.449Z,41.09
2019-06-08T13:00:21.049Z,41.19
2019-06-08T13:01:18.938Z,41.47
2019-06-08T13:02:23.585Z,40.87
2019-06-08T13:03:19.200Z,40.35